sensor_id;sensor_type;location;lat;lon;timestamp;P1;durP1;ratioP1;P2;durP2;ratioP2
41480;SDS011;27217;51.220;5.308;2023-04-15T00:00:02;10.50;;;3.83;;
41480;SDS011;27217;51.220;5.308;2023-04-15T00:03:08;12.98;;;4.57;;
41480;SDS011;27217;51.220;5.308;2023-04-15T00:06:14;13.95;;;4.60;;
41480;SDS011;27217;51.220;5.308;2023-04-15T00:09:20;12.73;;;4.13;;
41480;SDS011;27217;51.220;5.308;2023-04-15T00:12:29;12.80;;;3.72;;
41480;SDS011;27217;51.220;5.308;2023-04-15T00:15:35;6.97;;;4.00;;
41480;SDS011;27217;51.220;5.308;2023-04-15T00:18:41;12.35;;;4.43;;
41480;SDS011;27217;51.220;5.308;2023-04-15T00:21:46;16.55;;;4.55;;
41480;SDS011;27217;51.220;5.308;2023-04-15T00:24:52;10.25;;;4.50;;
41480;SDS011;27217;51.220;5.308;2023-04-15T00:27:58;13.20;;;4.40;;
41480;SDS011;27217;51.220;5.308;2023-04-15T00:31:03;15.82;;;5.53;;
41480;SDS011;27217;51.220;5.308;2023-04-15T00:34:09;10.88;;;4.25;;
41480;SDS011;27217;51.220;5.308;2023-04-15T00:37:16;10.98;;;4.05;;
41480;SDS011;27217;51.220;5.308;2023-04-15T00:40:22;10.30;;;4.57;;
41480;SDS011;27217;51.220;5.308;2023-04-15T00:43:27;13.80;;;4.30;;
41480;SDS011;27217;51.220;5.308;2023-04-15T00:46:36;15.60;;;5.28;;
41480;SDS011;27217;51.220;5.308;2023-04-15T00:49:42;9.82;;;4.47;;
41480;SDS011;27217;51.220;5.308;2023-04-15T00:52:47;10.93;;;5.00;;
41480;SDS011;27217;51.220;5.308;2023-04-15T00:55:53;10.95;;;4.82;;
41480;SDS011;27217;51.220;5.308;2023-04-15T00:58:58;12.82;;;4.70;;
41480;SDS011;27217;51.220;5.308;2023-04-15T01:02:04;10.68;;;4.78;;
41480;SDS011;27217;51.220;5.308;2023-04-15T01:05:10;11.98;;;4.60;;
41480;SDS011;27217;51.220;5.308;2023-04-15T01:08:21;9.88;;;4.28;;
41480;SDS011;27217;51.220;5.308;2023-04-15T01:11:27;11.88;;;5.03;;
41480;SDS011;27217;51.220;5.308;2023-04-15T01:14:32;13.40;;;5.00;;
41480;SDS011;27217;51.220;5.308;2023-04-15T01:17:38;13.70;;;5.30;;
41480;SDS011;27217;51.220;5.308;2023-04-15T01:20:44;15.20;;;5.38;;
41480;SDS011;27217;51.220;5.308;2023-04-15T01:23:50;13.35;;;5.15;;
41480;SDS011;27217;51.220;5.308;2023-04-15T01:26:56;8.77;;;5.18;;
41480;SDS011;27217;51.220;5.308;2023-04-15T01:30:02;8.32;;;4.57;;
41480;SDS011;27217;51.220;5.308;2023-04-15T01:33:08;9.63;;;5.20;;
41480;SDS011;27217;51.220;5.308;2023-04-15T01:36:14;11.45;;;5.22;;
41480;SDS011;27217;51.220;5.308;2023-04-15T01:39:19;11.98;;;5.70;;
41480;SDS011;27217;51.220;5.308;2023-04-15T01:42:25;15.30;;;5.88;;
41480;SDS011;27217;51.220;5.308;2023-04-15T01:45:30;8.30;;;5.03;;
41480;SDS011;27217;51.220;5.308;2023-04-15T01:48:35;10.02;;;5.22;;
41480;SDS011;27217;51.220;5.308;2023-04-15T01:51:41;10.43;;;5.63;;
41480;SDS011;27217;51.220;5.308;2023-04-15T01:54:47;21.52;;;6.13;;
41480;SDS011;27217;51.220;5.308;2023-04-15T01:57:53;16.42;;;6.18;;
41480;SDS011;27217;51.220;5.308;2023-04-15T02:00:58;12.15;;;6.53;;
41480;SDS011;27217;51.220;5.308;2023-04-15T02:04:04;12.18;;;5.68;;
41480;SDS011;27217;51.220;5.308;2023-04-15T02:07:10;14.32;;;5.65;;
41480;SDS011;27217;51.220;5.308;2023-04-15T02:10:16;10.50;;;5.90;;
41480;SDS011;27217;51.220;5.308;2023-04-15T02:13:22;19.63;;;5.93;;
41480;SDS011;27217;51.220;5.308;2023-04-15T02:16:28;23.00;;;7.10;;
41480;SDS011;27217;51.220;5.308;2023-04-15T02:19:34;13.43;;;5.75;;
41480;SDS011;27217;51.220;5.308;2023-04-15T02:22:40;11.05;;;5.80;;
41480;SDS011;27217;51.220;5.308;2023-04-15T02:25:46;9.65;;;5.82;;
41480;SDS011;27217;51.220;5.308;2023-04-15T02:28:52;21.00;;;6.35;;
41480;SDS011;27217;51.220;5.308;2023-04-15T02:32:00;10.23;;;5.45;;
41480;SDS011;27217;51.220;5.308;2023-04-15T02:35:08;11.13;;;5.35;;
41480;SDS011;27217;51.220;5.308;2023-04-15T02:38:14;15.70;;;5.75;;
41480;SDS011;27217;51.220;5.308;2023-04-15T02:41:21;13.07;;;5.65;;
41480;SDS011;27217;51.220;5.308;2023-04-15T02:44:27;10.75;;;5.47;;
41480;SDS011;27217;51.220;5.308;2023-04-15T02:47:33;10.48;;;5.35;;
41480;SDS011;27217;51.220;5.308;2023-04-15T02:50:39;17.75;;;6.47;;
41480;SDS011;27217;51.220;5.308;2023-04-15T02:53:36;8.77;;;5.90;;
41480;SDS011;27217;51.220;5.308;2023-04-15T02:56:42;11.07;;;5.47;;
41480;SDS011;27217;51.220;5.308;2023-04-15T02:59:47;14.38;;;6.00;;
41480;SDS011;27217;51.220;5.308;2023-04-15T03:02:56;15.10;;;6.50;;
41480;SDS011;27217;51.220;5.308;2023-04-15T03:05:58;9.73;;;5.78;;
41480;SDS011;27217;51.220;5.308;2023-04-15T03:09:04;10.00;;;5.47;;
41480;SDS011;27217;51.220;5.308;2023-04-15T03:12:09;13.32;;;6.10;;
41480;SDS011;27217;51.220;5.308;2023-04-15T03:15:15;19.35;;;5.93;;
41480;SDS011;27217;51.220;5.308;2023-04-15T03:18:21;13.45;;;5.53;;
41480;SDS011;27217;51.220;5.308;2023-04-15T03:21:26;11.90;;;5.88;;
41480;SDS011;27217;51.220;5.308;2023-04-15T03:24:32;18.20;;;5.57;;
41480;SDS011;27217;51.220;5.308;2023-04-15T03:27:37;11.43;;;5.40;;
41480;SDS011;27217;51.220;5.308;2023-04-15T03:30:43;14.52;;;6.40;;
41480;SDS011;27217;51.220;5.308;2023-04-15T03:33:48;12.77;;;5.93;;
41480;SDS011;27217;51.220;5.308;2023-04-15T03:36:54;14.70;;;6.00;;
41480;SDS011;27217;51.220;5.308;2023-04-15T03:40:00;12.60;;;5.82;;
41480;SDS011;27217;51.220;5.308;2023-04-15T03:43:05;11.77;;;5.60;;
41480;SDS011;27217;51.220;5.308;2023-04-15T03:46:11;10.98;;;4.90;;
41480;SDS011;27217;51.220;5.308;2023-04-15T03:49:17;16.10;;;7.22;;
41480;SDS011;27217;51.220;5.308;2023-04-15T03:52:22;13.27;;;5.78;;
41480;SDS011;27217;51.220;5.308;2023-04-15T03:55:28;13.77;;;5.68;;
41480;SDS011;27217;51.220;5.308;2023-04-15T03:58:36;15.93;;;6.00;;
41480;SDS011;27217;51.220;5.308;2023-04-15T04:01:39;13.02;;;6.38;;
41480;SDS011;27217;51.220;5.308;2023-04-15T04:04:44;15.50;;;6.35;;
41480;SDS011;27217;51.220;5.308;2023-04-15T04:07:50;15.27;;;7.00;;
41480;SDS011;27217;51.220;5.308;2023-04-15T04:10:56;14.45;;;6.22;;
41480;SDS011;27217;51.220;5.308;2023-04-15T04:14:02;17.63;;;6.75;;
41480;SDS011;27217;51.220;5.308;2023-04-15T04:17:08;10.40;;;5.97;;
41480;SDS011;27217;51.220;5.308;2023-04-15T04:20:13;14.38;;;6.70;;
41480;SDS011;27217;51.220;5.308;2023-04-15T04:23:19;15.80;;;6.93;;
41480;SDS011;27217;51.220;5.308;2023-04-15T04:26:25;16.33;;;7.05;;
41480;SDS011;27217;51.220;5.308;2023-04-15T04:29:30;21.83;;;7.80;;
41480;SDS011;27217;51.220;5.308;2023-04-15T04:32:36;17.17;;;7.35;;
41480;SDS011;27217;51.220;5.308;2023-04-15T04:35:41;19.73;;;8.57;;
41480;SDS011;27217;51.220;5.308;2023-04-15T04:38:47;14.70;;;8.65;;
41480;SDS011;27217;51.220;5.308;2023-04-15T04:41:53;18.90;;;9.07;;
41480;SDS011;27217;51.220;5.308;2023-04-15T04:45:00;16.08;;;8.73;;
41480;SDS011;27217;51.220;5.308;2023-04-15T04:48:05;20.30;;;8.95;;
41480;SDS011;27217;51.220;5.308;2023-04-15T04:51:11;18.67;;;9.23;;
41480;SDS011;27217;51.220;5.308;2023-04-15T04:54:17;21.05;;;11.15;;
41480;SDS011;27217;51.220;5.308;2023-04-15T04:57:23;22.85;;;10.05;;
41480;SDS011;27217;51.220;5.308;2023-04-15T05:00:28;16.92;;;10.30;;
41480;SDS011;27217;51.220;5.308;2023-04-15T05:03:34;22.98;;;10.82;;
41480;SDS011;27217;51.220;5.308;2023-04-15T05:06:39;25.67;;;11.35;;
41480;SDS011;27217;51.220;5.308;2023-04-15T05:09:46;23.58;;;11.68;;
41480;SDS011;27217;51.220;5.308;2023-04-15T05:12:52;21.23;;;11.90;;
41480;SDS011;27217;51.220;5.308;2023-04-15T05:15:58;24.85;;;11.63;;
41480;SDS011;27217;51.220;5.308;2023-04-15T05:19:03;29.05;;;12.30;;
41480;SDS011;27217;51.220;5.308;2023-04-15T05:22:08;22.50;;;11.80;;
41480;SDS011;27217;51.220;5.308;2023-04-15T05:25:14;20.85;;;11.38;;
41480;SDS011;27217;51.220;5.308;2023-04-15T05:28:20;25.35;;;11.57;;
41480;SDS011;27217;51.220;5.308;2023-04-15T05:31:26;19.85;;;11.07;;
41480;SDS011;27217;51.220;5.308;2023-04-15T05:34:32;24.30;;;12.95;;
41480;SDS011;27217;51.220;5.308;2023-04-15T05:37:37;18.35;;;11.45;;
41480;SDS011;27217;51.220;5.308;2023-04-15T05:40:43;24.00;;;12.70;;
41480;SDS011;27217;51.220;5.308;2023-04-15T05:43:49;24.23;;;12.15;;
41480;SDS011;27217;51.220;5.308;2023-04-15T05:46:54;23.48;;;11.80;;
41480;SDS011;27217;51.220;5.308;2023-04-15T05:50:00;22.40;;;12.35;;
41480;SDS011;27217;51.220;5.308;2023-04-15T05:53:05;26.15;;;12.63;;
41480;SDS011;27217;51.220;5.308;2023-04-15T05:56:11;24.10;;;11.95;;
41480;SDS011;27217;51.220;5.308;2023-04-15T05:59:16;24.42;;;12.98;;
41480;SDS011;27217;51.220;5.308;2023-04-15T06:02:22;22.73;;;11.80;;
41480;SDS011;27217;51.220;5.308;2023-04-15T06:05:27;24.40;;;12.13;;
41480;SDS011;27217;51.220;5.308;2023-04-15T06:08:33;22.98;;;11.40;;
41480;SDS011;27217;51.220;5.308;2023-04-15T06:11:39;25.08;;;12.10;;
41480;SDS011;27217;51.220;5.308;2023-04-15T06:14:44;24.30;;;11.60;;
41480;SDS011;27217;51.220;5.308;2023-04-15T06:17:50;24.70;;;11.45;;
41480;SDS011;27217;51.220;5.308;2023-04-15T06:20:56;18.58;;;10.88;;
41480;SDS011;27217;51.220;5.308;2023-04-15T06:24:01;19.70;;;11.45;;
41480;SDS011;27217;51.220;5.308;2023-04-15T06:27:07;23.92;;;11.82;;
41480;SDS011;27217;51.220;5.308;2023-04-15T06:30:12;18.63;;;11.23;;
41480;SDS011;27217;51.220;5.308;2023-04-15T06:33:18;23.02;;;11.13;;
41480;SDS011;27217;51.220;5.308;2023-04-15T06:36:24;24.02;;;11.70;;
41480;SDS011;27217;51.220;5.308;2023-04-15T06:39:30;19.25;;;10.95;;
41480;SDS011;27217;51.220;5.308;2023-04-15T06:42:35;25.67;;;11.48;;
41480;SDS011;27217;51.220;5.308;2023-04-15T06:45:41;22.45;;;11.05;;
41480;SDS011;27217;51.220;5.308;2023-04-15T06:48:47;22.63;;;11.10;;
41480;SDS011;27217;51.220;5.308;2023-04-15T06:51:52;22.13;;;11.07;;
41480;SDS011;27217;51.220;5.308;2023-04-15T06:54:58;20.17;;;11.18;;
41480;SDS011;27217;51.220;5.308;2023-04-15T06:58:04;31.75;;;10.35;;
41480;SDS011;27217;51.220;5.308;2023-04-15T07:01:10;22.15;;;11.48;;
41480;SDS011;27217;51.220;5.308;2023-04-15T07:04:15;19.67;;;10.40;;
41480;SDS011;27217;51.220;5.308;2023-04-15T07:07:21;19.17;;;11.00;;
41480;SDS011;27217;51.220;5.308;2023-04-15T07:10:27;23.40;;;10.70;;
41480;SDS011;27217;51.220;5.308;2023-04-15T07:13:33;21.42;;;10.10;;
41480;SDS011;27217;51.220;5.308;2023-04-15T07:16:39;19.92;;;9.50;;
41480;SDS011;27217;51.220;5.308;2023-04-15T07:19:44;16.25;;;9.80;;
41480;SDS011;27217;51.220;5.308;2023-04-15T07:22:50;20.50;;;11.05;;
41480;SDS011;27217;51.220;5.308;2023-04-15T07:25:56;19.65;;;10.10;;
41480;SDS011;27217;51.220;5.308;2023-04-15T07:29:02;19.75;;;10.65;;
41480;SDS011;27217;51.220;5.308;2023-04-15T07:32:07;18.92;;;9.48;;
41480;SDS011;27217;51.220;5.308;2023-04-15T07:35:13;16.55;;;9.00;;
41480;SDS011;27217;51.220;5.308;2023-04-15T07:38:18;16.17;;;9.45;;
41480;SDS011;27217;51.220;5.308;2023-04-15T07:41:26;15.25;;;10.05;;
41480;SDS011;27217;51.220;5.308;2023-04-15T07:44:31;18.23;;;9.10;;
41480;SDS011;27217;51.220;5.308;2023-04-15T07:47:37;16.75;;;9.63;;
41480;SDS011;27217;51.220;5.308;2023-04-15T07:50:42;15.25;;;8.45;;
41480;SDS011;27217;51.220;5.308;2023-04-15T07:53:48;14.02;;;7.95;;
41480;SDS011;27217;51.220;5.308;2023-04-15T07:56:54;13.15;;;8.25;;
41480;SDS011;27217;51.220;5.308;2023-04-15T08:00:00;17.73;;;7.85;;
41480;SDS011;27217;51.220;5.308;2023-04-15T08:03:05;15.77;;;7.65;;
41480;SDS011;27217;51.220;5.308;2023-04-15T08:06:11;12.20;;;7.13;;
41480;SDS011;27217;51.220;5.308;2023-04-15T08:09:17;9.10;;;6.20;;
41480;SDS011;27217;51.220;5.308;2023-04-15T08:12:23;10.20;;;5.18;;
41480;SDS011;27217;51.220;5.308;2023-04-15T08:15:28;10.77;;;7.22;;
41480;SDS011;27217;51.220;5.308;2023-04-15T08:18:47;10.30;;;6.55;;
41480;SDS011;27217;51.220;5.308;2023-04-15T08:21:53;11.35;;;5.90;;
41480;SDS011;27217;51.220;5.308;2023-04-15T08:24:58;9.68;;;6.70;;
41480;SDS011;27217;51.220;5.308;2023-04-15T08:28:04;12.23;;;6.70;;
41480;SDS011;27217;51.220;5.308;2023-04-15T08:31:11;10.55;;;6.53;;
41480;SDS011;27217;51.220;5.308;2023-04-15T08:34:15;14.63;;;7.25;;
41480;SDS011;27217;51.220;5.308;2023-04-15T08:37:21;9.35;;;6.38;;
41480;SDS011;27217;51.220;5.308;2023-04-15T08:40:26;13.02;;;7.60;;
41480;SDS011;27217;51.220;5.308;2023-04-15T08:43:32;15.60;;;7.05;;
41480;SDS011;27217;51.220;5.308;2023-04-15T08:46:38;11.32;;;6.80;;
41480;SDS011;27217;51.220;5.308;2023-04-15T08:49:44;13.30;;;6.32;;
41480;SDS011;27217;51.220;5.308;2023-04-15T08:52:52;9.30;;;6.63;;
41480;SDS011;27217;51.220;5.308;2023-04-15T08:55:59;11.90;;;6.43;;
41480;SDS011;27217;51.220;5.308;2023-04-15T08:59:04;14.85;;;7.03;;
41480;SDS011;27217;51.220;5.308;2023-04-15T09:02:10;13.75;;;6.93;;
41480;SDS011;27217;51.220;5.308;2023-04-15T09:05:16;8.40;;;5.47;;
41480;SDS011;27217;51.220;5.308;2023-04-15T09:08:22;7.22;;;5.45;;
41480;SDS011;27217;51.220;5.308;2023-04-15T09:11:28;10.48;;;5.25;;
41480;SDS011;27217;51.220;5.308;2023-04-15T09:14:34;8.40;;;5.40;;
41480;SDS011;27217;51.220;5.308;2023-04-15T09:17:43;9.68;;;5.13;;
41480;SDS011;27217;51.220;5.308;2023-04-15T09:20:48;8.80;;;5.10;;
41480;SDS011;27217;51.220;5.308;2023-04-15T09:23:58;8.57;;;4.78;;
41480;SDS011;27217;51.220;5.308;2023-04-15T09:27:03;10.07;;;4.82;;
41480;SDS011;27217;51.220;5.308;2023-04-15T09:30:09;12.38;;;5.43;;
41480;SDS011;27217;51.220;5.308;2023-04-15T09:33:14;5.97;;;4.00;;
41480;SDS011;27217;51.220;5.308;2023-04-15T09:36:21;8.75;;;3.97;;
41480;SDS011;27217;51.220;5.308;2023-04-15T09:39:14;8.57;;;3.20;;
41480;SDS011;27217;51.220;5.308;2023-04-15T09:42:31;7.80;;;3.33;;
41480;SDS011;27217;51.220;5.308;2023-04-15T09:45:48;6.80;;;3.70;;
41480;SDS011;27217;51.220;5.308;2023-04-15T09:49:26;5.93;;;3.97;;
41480;SDS011;27217;51.220;5.308;2023-04-15T09:52:05;16.13;;;4.35;;
41480;SDS011;27217;51.220;5.308;2023-04-15T09:55:11;7.30;;;2.90;;
41480;SDS011;27217;51.220;5.308;2023-04-15T09:58:23;4.90;;;2.55;;
41480;SDS011;27217;51.220;5.308;2023-04-15T10:04:14;8.23;;;2.28;;
41480;SDS011;27217;51.220;5.308;2023-04-15T10:07:20;8.30;;;2.28;;
41480;SDS011;27217;51.220;5.308;2023-04-15T10:10:26;3.95;;;1.52;;
41480;SDS011;27217;51.220;5.308;2023-04-15T10:13:32;4.72;;;3.10;;
41480;SDS011;27217;51.220;5.308;2023-04-15T10:16:37;5.88;;;3.30;;
41480;SDS011;27217;51.220;5.308;2023-04-15T10:19:43;6.38;;;3.50;;
41480;SDS011;27217;51.220;5.308;2023-04-15T10:22:49;6.63;;;3.38;;
41480;SDS011;27217;51.220;5.308;2023-04-15T10:25:55;8.15;;;2.83;;
41480;SDS011;27217;51.220;5.308;2023-04-15T10:29:00;5.55;;;3.20;;
41480;SDS011;27217;51.220;5.308;2023-04-15T10:32:06;6.13;;;3.03;;
41480;SDS011;27217;51.220;5.308;2023-04-15T10:35:12;6.15;;;3.05;;
41480;SDS011;27217;51.220;5.308;2023-04-15T10:38:30;3.47;;;2.70;;
41480;SDS011;27217;51.220;5.308;2023-04-15T10:41:35;2.58;;;2.38;;
41480;SDS011;27217;51.220;5.308;2023-04-15T10:44:51;7.30;;;3.20;;
41480;SDS011;27217;51.220;5.308;2023-04-15T10:47:57;6.55;;;3.08;;
41480;SDS011;27217;51.220;5.308;2023-04-15T10:51:02;3.47;;;2.85;;
41480;SDS011;27217;51.220;5.308;2023-04-15T10:54:14;3.53;;;2.83;;
41480;SDS011;27217;51.220;5.308;2023-04-15T10:57:21;4.70;;;2.95;;
41480;SDS011;27217;51.220;5.308;2023-04-15T11:00:29;2.92;;;2.42;;
41480;SDS011;27217;51.220;5.308;2023-04-15T11:03:38;3.95;;;2.65;;
41480;SDS011;27217;51.220;5.308;2023-04-15T11:06:43;4.30;;;2.53;;
41480;SDS011;27217;51.220;5.308;2023-04-15T11:09:49;3.30;;;2.58;;
41480;SDS011;27217;51.220;5.308;2023-04-15T11:12:37;3.28;;;2.72;;
41480;SDS011;27217;51.220;5.308;2023-04-15T11:15:43;5.25;;;3.13;;
41480;SDS011;27217;51.220;5.308;2023-04-15T11:18:54;4.05;;;2.83;;
41480;SDS011;27217;51.220;5.308;2023-04-15T11:22:07;3.92;;;2.53;;
41480;SDS011;27217;51.220;5.308;2023-04-15T11:25:21;3.72;;;1.83;;
41480;SDS011;27217;51.220;5.308;2023-04-15T11:28:18;2.75;;;2.10;;
41480;SDS011;27217;51.220;5.308;2023-04-15T11:31:25;5.43;;;2.05;;
41480;SDS011;27217;51.220;5.308;2023-04-15T11:34:31;7.10;;;1.70;;
41480;SDS011;27217;51.220;5.308;2023-04-15T11:37:36;5.53;;;1.70;;
41480;SDS011;27217;51.220;5.308;2023-04-15T11:40:42;5.43;;;1.52;;
41480;SDS011;27217;51.220;5.308;2023-04-15T11:43:49;14.15;;;1.92;;
41480;SDS011;27217;51.220;5.308;2023-04-15T11:47:00;2.50;;;2.08;;
41480;SDS011;27217;51.220;5.308;2023-04-15T11:50:27;2.75;;;1.30;;
41480;SDS011;27217;51.220;5.308;2023-04-15T11:53:17;2.25;;;1.58;;
41480;SDS011;27217;51.220;5.308;2023-04-15T11:56:26;2.95;;;2.05;;
41480;SDS011;27217;51.220;5.308;2023-04-15T11:59:41;3.53;;;1.83;;
41480;SDS011;27217;51.220;5.308;2023-04-15T12:02:47;3.40;;;1.83;;
41480;SDS011;27217;51.220;5.308;2023-04-15T12:06:12;3.30;;;1.85;;
41480;SDS011;27217;51.220;5.308;2023-04-15T12:08:58;2.58;;;1.73;;
41480;SDS011;27217;51.220;5.308;2023-04-15T12:12:03;3.10;;;2.10;;
41480;SDS011;27217;51.220;5.308;2023-04-15T12:15:12;3.13;;;1.52;;
41480;SDS011;27217;51.220;5.308;2023-04-15T12:18:17;2.00;;;1.77;;
41480;SDS011;27217;51.220;5.308;2023-04-15T12:21:24;2.85;;;1.95;;
41480;SDS011;27217;51.220;5.308;2023-04-15T12:24:30;4.55;;;1.80;;
41480;SDS011;27217;51.220;5.308;2023-04-15T12:27:35;2.67;;;1.70;;
41480;SDS011;27217;51.220;5.308;2023-04-15T12:30:47;4.18;;;2.40;;
41480;SDS011;27217;51.220;5.308;2023-04-15T12:33:56;2.33;;;2.08;;
41480;SDS011;27217;51.220;5.308;2023-04-15T12:37:02;2.10;;;1.90;;
41480;SDS011;27217;51.220;5.308;2023-04-15T12:40:07;7.70;;;2.80;;
41480;SDS011;27217;51.220;5.308;2023-04-15T12:43:13;2.90;;;2.00;;
41480;SDS011;27217;51.220;5.308;2023-04-15T12:46:19;3.05;;;1.50;;
41480;SDS011;27217;51.220;5.308;2023-04-15T12:49:24;2.38;;;1.83;;
41480;SDS011;27217;51.220;5.308;2023-04-15T12:52:30;3.53;;;1.40;;
41480;SDS011;27217;51.220;5.308;2023-04-15T12:55:35;5.32;;;1.70;;
41480;SDS011;27217;51.220;5.308;2023-04-15T12:58:41;3.13;;;2.10;;
41480;SDS011;27217;51.220;5.308;2023-04-15T13:01:48;2.92;;;2.08;;
41480;SDS011;27217;51.220;5.308;2023-04-15T13:04:53;1.88;;;1.70;;
41480;SDS011;27217;51.220;5.308;2023-04-15T13:08:01;2.78;;;2.15;;
41480;SDS011;27217;51.220;5.308;2023-04-15T13:11:06;2.50;;;2.00;;
41480;SDS011;27217;51.220;5.308;2023-04-15T13:14:12;6.20;;;1.88;;
41480;SDS011;27217;51.220;5.308;2023-04-15T13:17:17;4.38;;;2.10;;
41480;SDS011;27217;51.220;5.308;2023-04-15T13:20:23;2.63;;;1.67;;
41480;SDS011;27217;51.220;5.308;2023-04-15T13:23:28;3.38;;;1.83;;
41480;SDS011;27217;51.220;5.308;2023-04-15T13:26:37;1.90;;;1.60;;
41480;SDS011;27217;51.220;5.308;2023-04-15T13:29:42;2.95;;;1.88;;
41480;SDS011;27217;51.220;5.308;2023-04-15T13:32:48;3.67;;;2.00;;
41480;SDS011;27217;51.220;5.308;2023-04-15T13:35:53;3.85;;;1.45;;
41480;SDS011;27217;51.220;5.308;2023-04-15T13:38:59;3.55;;;1.90;;
41480;SDS011;27217;51.220;5.308;2023-04-15T13:42:05;5.05;;;1.73;;
41480;SDS011;27217;51.220;5.308;2023-04-15T13:45:11;2.13;;;1.73;;
41480;SDS011;27217;51.220;5.308;2023-04-15T13:48:17;2.83;;;1.90;;
41480;SDS011;27217;51.220;5.308;2023-04-15T13:51:22;2.05;;;1.77;;
41480;SDS011;27217;51.220;5.308;2023-04-15T13:54:27;7.03;;;2.20;;
41480;SDS011;27217;51.220;5.308;2023-04-15T13:57:33;4.15;;;2.30;;
41480;SDS011;27217;51.220;5.308;2023-04-15T14:00:38;2.67;;;1.75;;
41480;SDS011;27217;51.220;5.308;2023-04-15T14:03:44;7.57;;;1.83;;
41480;SDS011;27217;51.220;5.308;2023-04-15T14:06:50;7.30;;;2.90;;
41480;SDS011;27217;51.220;5.308;2023-04-15T14:09:55;3.55;;;1.80;;
41480;SDS011;27217;51.220;5.308;2023-04-15T14:13:01;3.53;;;1.90;;
41480;SDS011;27217;51.220;5.308;2023-04-15T14:16:06;7.72;;;2.58;;
41480;SDS011;27217;51.220;5.308;2023-04-15T14:19:13;6.35;;;1.70;;
41480;SDS011;27217;51.220;5.308;2023-04-15T14:22:18;2.45;;;1.40;;
41480;SDS011;27217;51.220;5.308;2023-04-15T14:25:24;2.97;;;1.40;;
41480;SDS011;27217;51.220;5.308;2023-04-15T14:28:29;3.95;;;1.63;;
41480;SDS011;27217;51.220;5.308;2023-04-15T14:31:35;2.38;;;1.25;;
41480;SDS011;27217;51.220;5.308;2023-04-15T14:34:40;4.70;;;1.20;;
41480;SDS011;27217;51.220;5.308;2023-04-15T14:37:46;1.98;;;1.13;;
41480;SDS011;27217;51.220;5.308;2023-04-15T14:40:52;3.53;;;1.30;;
41480;SDS011;27217;51.220;5.308;2023-04-15T14:44:00;2.70;;;0.93;;
41480;SDS011;27217;51.220;5.308;2023-04-15T14:47:06;3.75;;;1.20;;
41480;SDS011;27217;51.220;5.308;2023-04-15T14:50:12;3.47;;;1.27;;
41480;SDS011;27217;51.220;5.308;2023-04-15T14:53:17;6.00;;;1.58;;
41480;SDS011;27217;51.220;5.308;2023-04-15T14:56:23;2.70;;;1.17;;
41480;SDS011;27217;51.220;5.308;2023-04-15T14:59:29;1.25;;;1.10;;
41480;SDS011;27217;51.220;5.308;2023-04-15T15:02:35;4.10;;;0.75;;
41480;SDS011;27217;51.220;5.308;2023-04-15T15:05:41;6.32;;;1.20;;
41480;SDS011;27217;51.220;5.308;2023-04-15T15:08:47;4.30;;;1.08;;
41480;SDS011;27217;51.220;5.308;2023-04-15T15:11:52;1.45;;;0.88;;
41480;SDS011;27217;51.220;5.308;2023-04-15T15:14:58;2.97;;;1.15;;
41480;SDS011;27217;51.220;5.308;2023-04-15T15:18:04;1.65;;;0.98;;
41480;SDS011;27217;51.220;5.308;2023-04-15T15:21:10;3.70;;;0.98;;
41480;SDS011;27217;51.220;5.308;2023-04-15T15:24:15;1.23;;;0.73;;
41480;SDS011;27217;51.220;5.308;2023-04-15T15:27:23;1.42;;;0.80;;
41480;SDS011;27217;51.220;5.308;2023-04-15T15:30:28;1.70;;;0.80;;
41480;SDS011;27217;51.220;5.308;2023-04-15T15:33:34;2.38;;;0.77;;
41480;SDS011;27217;51.220;5.308;2023-04-15T15:36:40;1.70;;;0.75;;
41480;SDS011;27217;51.220;5.308;2023-04-15T15:39:46;3.88;;;1.10;;
41480;SDS011;27217;51.220;5.308;2023-04-15T15:42:52;4.45;;;1.00;;
41480;SDS011;27217;51.220;5.308;2023-04-15T15:45:58;2.25;;;1.10;;
41480;SDS011;27217;51.220;5.308;2023-04-15T15:49:03;3.17;;;1.23;;
41480;SDS011;27217;51.220;5.308;2023-04-15T15:52:09;3.92;;;1.13;;
41480;SDS011;27217;51.220;5.308;2023-04-15T15:55:14;1.73;;;0.80;;
41480;SDS011;27217;51.220;5.308;2023-04-15T15:58:20;3.45;;;0.90;;
41480;SDS011;27217;51.220;5.308;2023-04-15T16:01:26;5.28;;;1.00;;
41480;SDS011;27217;51.220;5.308;2023-04-15T16:04:32;2.35;;;1.13;;
41480;SDS011;27217;51.220;5.308;2023-04-15T16:07:38;2.25;;;1.00;;
41480;SDS011;27217;51.220;5.308;2023-04-15T16:10:44;3.25;;;0.95;;
41480;SDS011;27217;51.220;5.308;2023-04-15T16:13:50;5.85;;;2.38;;
41480;SDS011;27217;51.220;5.308;2023-04-15T16:16:56;2.03;;;0.98;;
41480;SDS011;27217;51.220;5.308;2023-04-15T16:20:01;3.60;;;1.10;;
41480;SDS011;27217;51.220;5.308;2023-04-15T16:23:10;2.97;;;1.02;;
41480;SDS011;27217;51.220;5.308;2023-04-15T16:26:13;5.03;;;1.20;;
41480;SDS011;27217;51.220;5.308;2023-04-15T16:29:19;1.42;;;0.95;;
41480;SDS011;27217;51.220;5.308;2023-04-15T16:32:25;1.75;;;1.15;;
41480;SDS011;27217;51.220;5.308;2023-04-15T16:35:31;7.53;;;1.17;;
41480;SDS011;27217;51.220;5.308;2023-04-15T16:38:37;2.33;;;1.15;;
41480;SDS011;27217;51.220;5.308;2023-04-15T16:41:43;3.47;;;1.20;;
41480;SDS011;27217;51.220;5.308;2023-04-15T16:44:49;5.40;;;1.00;;
41480;SDS011;27217;51.220;5.308;2023-04-15T16:47:55;2.08;;;1.08;;
41480;SDS011;27217;51.220;5.308;2023-04-15T16:51:01;3.95;;;1.00;;
41480;SDS011;27217;51.220;5.308;2023-04-15T16:54:07;2.45;;;1.00;;
41480;SDS011;27217;51.220;5.308;2023-04-15T16:57:12;1.13;;;0.77;;
41480;SDS011;27217;51.220;5.308;2023-04-15T17:00:18;1.48;;;0.70;;
41480;SDS011;27217;51.220;5.308;2023-04-15T17:03:24;1.13;;;0.80;;
41480;SDS011;27217;51.220;5.308;2023-04-15T17:06:29;1.30;;;0.88;;
41480;SDS011;27217;51.220;5.308;2023-04-15T17:09:37;5.57;;;1.50;;
41480;SDS011;27217;51.220;5.308;2023-04-15T17:12:40;1.45;;;0.85;;
41480;SDS011;27217;51.220;5.308;2023-04-15T17:15:46;4.75;;;0.80;;
41480;SDS011;27217;51.220;5.308;2023-04-15T17:18:52;5.30;;;1.10;;
41480;SDS011;27217;51.220;5.308;2023-04-15T17:21:58;11.65;;;1.30;;
41480;SDS011;27217;51.220;5.308;2023-04-15T17:25:04;2.22;;;1.00;;
41480;SDS011;27217;51.220;5.308;2023-04-15T17:28:10;5.78;;;1.30;;
41480;SDS011;27217;51.220;5.308;2023-04-15T17:31:16;3.90;;;0.88;;
41480;SDS011;27217;51.220;5.308;2023-04-15T17:34:21;3.08;;;0.90;;
41480;SDS011;27217;51.220;5.308;2023-04-15T17:37:27;4.43;;;1.08;;
41480;SDS011;27217;51.220;5.308;2023-04-15T17:40:33;5.72;;;0.90;;
41480;SDS011;27217;51.220;5.308;2023-04-15T17:43:39;6.85;;;1.10;;
41480;SDS011;27217;51.220;5.308;2023-04-15T17:46:44;9.95;;;1.20;;
41480;SDS011;27217;51.220;5.308;2023-04-15T17:49:50;7.22;;;1.30;;
41480;SDS011;27217;51.220;5.308;2023-04-15T17:52:55;3.75;;;1.42;;
41480;SDS011;27217;51.220;5.308;2023-04-15T17:56:01;3.55;;;1.40;;
41480;SDS011;27217;51.220;5.308;2023-04-15T17:59:07;6.07;;;1.33;;
41480;SDS011;27217;51.220;5.308;2023-04-15T18:02:13;2.25;;;0.80;;
41480;SDS011;27217;51.220;5.308;2023-04-15T18:05:18;3.28;;;0.85;;
41480;SDS011;27217;51.220;5.308;2023-04-15T18:08:25;1.55;;;0.63;;
41480;SDS011;27217;51.220;5.308;2023-04-15T18:11:31;3.47;;;1.00;;
41480;SDS011;27217;51.220;5.308;2023-04-15T18:14:37;6.13;;;1.13;;
41480;SDS011;27217;51.220;5.308;2023-04-15T18:17:43;4.28;;;1.63;;
41480;SDS011;27217;51.220;5.308;2023-04-15T18:20:49;5.88;;;1.17;;
41480;SDS011;27217;51.220;5.308;2023-04-15T18:23:54;3.17;;;1.08;;
41480;SDS011;27217;51.220;5.308;2023-04-15T18:27:00;5.28;;;1.17;;
41480;SDS011;27217;51.220;5.308;2023-04-15T18:30:06;4.38;;;1.00;;
41480;SDS011;27217;51.220;5.308;2023-04-15T18:33:12;4.55;;;1.08;;